Time;durP1;ratioP1;P1;durP2;ratioP2;P2;SDS_P1;SDS_P2;PMS_P1;PMS_P2;Temp;Humidity;BMP_temperature;BMP_pressure;BME280_temperature;BME280_humidity;BME280_pressure;Samples;Min_cycle;Max_cycle;Signal;HPM_P1;HPM_P2
2022/10/04 00:02:11;;;;;;;;;;;;;;;12.16;66.76;101942.38;5009557;28;19929;-76
2022/10/04 00:04:52;;;;;;;;;;;;;;;12.24;66.24;101950.16;5010699;28;19918;-76
2022/10/04 00:07:21;;;;;;;;;;;;;;;12.34;66.66;101943.94;5016399;28;20004;-76
2022/10/04 00:09:58;;;;;;;;;;;;;;;12.32;66.35;101943.97;5009191;28;19978;-76
2022/10/04 00:12:29;;;;;;;;;;;;;;;12.27;66.74;101932.75;4996310;28;19921;-77
2022/10/04 00:14:57;;;;;;;;;;;;;;;12.22;66.58;101937.13;5016533;28;20489;-77
2022/10/04 00:17:26;;;;;;;;;;;;;;;12.13;67.18;101943.28;5009211;28;20298;-76
2022/10/04 00:19:52;;;;;;;;;;;;;;;12.18;66.92;101947.59;5010532;28;19922;-77
2022/10/04 00:22:21;;;;;;;;;;;;;;;12.17;67.06;101953.66;5009549;28;19937;-76
2022/10/04 00:25:00;;;;;;;;;;;;;;;12.15;67.01;101963.25;5013673;28;20417;-76
2022/10/04 00:27:26;;;;;;;;;;;;;;;12.12;66.99;101971.97;5020817;28;20390;-76
2022/10/04 00:30:00;;;;;;;;;;;;;;;12.08;66.55;101965.91;5021780;28;20032;-77
2022/10/04 00:32:46;;;;;;;;;;;;;;;12.14;66.45;101967.59;5011804;28;20033;-76
2022/10/04 00:35:23;;;;;;;;;;;;;;;12.03;66.49;101965.09;5020208;28;20390;-76
2022/10/04 00:37:57;;;;;;;;;;;;;;;12.03;66.61;101957.28;5013043;28;19917;-76
2022/10/04 00:40:25;;;;;;;;;;;;;;;12.03;66.87;101943.38;5007492;28;19969;-76
2022/10/04 00:43:05;;;;;;;;;;;;;;;12.05;66.96;101936.41;5009000;28;19925;-76
2022/10/04 00:45:38;;;;;;;;;;;;;;;12.04;66.95;101945.97;5012528;28;19918;-76
2022/10/04 00:48:04;;;;;;;;;;;;;;;12.10;66.69;101942.44;5024958;28;19944;-77
2022/10/04 00:50:32;;;;;;;;;;;;;;;11.94;67.45;101938.25;5011929;28;20386;-76
2022/10/04 00:52:59;;;;;;;;;;;;;;;12.04;66.88;101932.94;5007406;28;20398;-76
2022/10/04 00:55:33;;;;;;;;;;;;;;;12.10;66.89;101925.06;5013901;28;19921;-76
2022/10/04 00:58:00;;;;;;;;;;;;;;;12.13;67.02;101919.84;5013863;28;20008;-77
2022/10/04 01:00:28;;;;;;;;;;;;;;;12.12;66.82;101917.25;5008768;28;19922;-77
2022/10/04 01:03:14;;;;;;;;;;;;;;;12.13;66.45;101914.63;5014321;28;19926;-76
2022/10/04 01:05:41;;;;;;;;;;;;;;;12.01;66.69;101914.72;5010616;28;19928;-76
2022/10/04 01:08:14;;;;;;;;;;;;;;;11.98;66.94;101919.97;5016283;28;19921;-76
2022/10/04 01:10:44;;;;;;;;;;;;;;;12.02;66.13;101913.00;5010152;28;19920;-76
2022/10/04 01:13:12;;;;;;;;;;;;;;;12.06;66.63;101912.09;4994704;28;19929;-77
2022/10/04 01:15:41;;;;;;;;;;;;;;;12.02;66.35;101913.88;5011191;28;20403;-76
2022/10/04 01:18:08;;;;;;;;;;;;;;;11.91;66.39;101910.50;5016482;28;20354;-77
2022/10/04 01:20:38;;;;;;;;;;;;;;;11.94;66.13;101914.81;5007254;28;19929;-76
2022/10/04 01:23:04;;;;;;;;;;;;;;;11.94;66.59;101905.25;5006848;28;19925;-75
2022/10/04 01:25:43;;;;;;;;;;;;;;;11.96;65.90;101906.09;5008110;28;19925;-76
2022/10/04 01:28:08;;;;;;;;;;;;;;;11.86;66.40;101912.25;5003390;28;20595;-76
2022/10/04 01:30:33;;;;;;;;;;;;;;;11.99;66.08;101913.03;5013918;28;19929;-76
2022/10/04 01:32:59;;;;;;;;;;;;;;;11.97;65.88;101907.84;5007395;28;19925;-76
2022/10/04 01:35:25;;;;;;;;;;;;;;;12.00;65.98;101912.16;5005946;28;19924;-76
2022/10/04 01:37:51;;;;;;;;;;;;;;;11.96;66.22;101913.06;5008022;28;19918;-76
2022/10/04 01:40:16;;;;;;;;;;;;;;;11.88;66.04;101905.31;5006929;28;19964;-76
2022/10/04 01:42:45;;;;;;;;;;;;;;;11.94;65.97;101902.66;5000765;28;19997;-76
2022/10/04 01:45:10;;;;;;;;;;;;;;;12.01;65.84;101891.28;5012598;28;20353;-75
2022/10/04 01:47:35;;;;;;;;;;;;;;;11.95;66.29;101893.94;5013138;28;19925;-76
2022/10/04 01:50:04;;;;;;;;;;;;;;;11.96;65.59;101885.28;5009290;28;19925;-76
2022/10/04 01:52:35;;;;;;;;;;;;;;;11.89;66.06;101885.34;5006879;28;19922;-76
2022/10/04 01:55:16;;;;;;;;;;;;;;;11.88;66.26;101879.28;5007405;28;19928;-77
2022/10/04 01:57:49;;;;;;;;;;;;;;;11.85;66.95;101881.03;5007546;28;19930;-76
2022/10/04 02:00:15;;;;;;;;;;;;;;;11.95;66.20;101887.88;5006565;28;20483;-76
2022/10/04 02:02:59;;;;;;;;;;;;;;;11.90;66.38;101887.94;5013352;28;19933;-77
2022/10/04 02:05:29;;;;;;;;;;;;;;;11.85;66.24;101891.44;5007667;28;19928;-76
2022/10/04 02:07:57;;;;;;;;;;;;;;;11.86;66.68;101895.78;5011031;28;19976;-76
2022/10/04 02:10:24;;;;;;;;;;;;;;;11.85;66.86;101894.94;5005966;28;19925;-76
2022/10/04 02:12:51;;;;;;;;;;;;;;;11.88;65.95;101894.91;5015381;28;20394;-77
2022/10/04 02:15:18;;;;;;;;;;;;;;;11.84;66.53;101890.59;5010536;28;20004;-76
2022/10/04 02:17:45;;;;;;;;;;;;;;;11.81;66.41;101897.56;5014847;28;19929;-77
2022/10/04 02:20:20;;;;;;;;;;;;;;;11.76;66.75;101891.53;5009579;28;20020;-76
2022/10/04 02:22:49;;;;;;;;;;;;;;;11.73;66.67;101896.75;5012415;28;19933;-76
2022/10/04 02:25:17;;;;;;;;;;;;;;;11.80;66.29;101901.06;5008546;28;19921;-76
2022/10/04 02:27:42;;;;;;;;;;;;;;;11.69;66.37;101890.69;5012987;28;20019;-76
2022/10/04 02:30:09;;;;;;;;;;;;;;;11.81;66.29;101889.75;5006448;28;20119;-76
2022/10/04 02:35:20;;;;;;;;;;;;;;;11.71;66.09;101886.34;5009976;28;19940;-76
2022/10/04 02:37:50;;;;;;;;;;;;;;;11.63;66.07;101888.16;4995151;28;19922;-76
2022/10/04 02:40:17;;;;;;;;;;;;;;;11.76;65.87;101878.50;5008659;28;19929;-76
2022/10/04 02:42:47;;;;;;;;;;;;;;;11.73;65.04;101875.94;5009626;28;19933;-77
2022/10/04 02:45:18;;;;;;;;;;;;;;;11.77;65.35;101875.03;5017545;28;19921;-76
2022/10/04 02:47:50;;;;;;;;;;;;;;;11.76;65.40;101881.97;5020067;28;19945;-76
2022/10/04 02:50:38;;;;;;;;;;;;;;;11.69;65.63;101869.88;5018750;28;19968;-76
2022/10/04 02:53:18;;;;;;;;;;;;;;;11.68;65.46;101864.69;5015247;28;19953;-76
2022/10/04 02:55:44;;;;;;;;;;;;;;;11.73;64.99;101860.31;5012638;28;19918;-76
2022/10/04 02:58:13;;;;;;;;;;;;;;;11.55;65.33;101858.72;5009604;28;19921;-77
2022/10/04 03:00:53;;;;;;;;;;;;;;;11.51;65.06;101857.88;5011189;28;19929;-76
2022/10/04 03:03:27;;;;;;;;;;;;;;;11.59;65.25;101865.66;5018514;28;19925;-76
2022/10/04 03:05:58;;;;;;;;;;;;;;;11.69;65.00;101858.59;5013078;28;20064;-76
2022/10/04 03:08:24;;;;;;;;;;;;;;;11.65;64.60;101844.75;5014971;28;19926;-76
2022/10/04 03:10:50;;;;;;;;;;;;;;;11.57;64.60;101841.34;5010990;28;20656;-77
2022/10/04 03:13:17;;;;;;;;;;;;;;;11.62;64.95;101847.41;5019817;28;19964;-77
2022/10/04 03:15:43;;;;;;;;;;;;;;;11.63;64.87;101843.91;5014141;28;20291;-77
2022/10/04 03:18:09;;;;;;;;;;;;;;;11.70;65.58;101845.59;5014262;28;19949;-77
2022/10/04 03:20:36;;;;;;;;;;;;;;;11.68;65.62;101841.28;5010867;28;20449;-77
2022/10/04 03:23:03;;;;;;;;;;;;;;;11.61;66.35;101844.78;5011325;28;19976;-77
2022/10/04 03:25:29;;;;;;;;;;;;;;;11.67;66.26;101842.16;4996554;28;19928;-77
2022/10/04 03:27:58;;;;;;;;;;;;;;;11.66;66.90;101843.88;5019208;28;19936;-76
2022/10/04 03:30:24;;;;;;;;;;;;;;;11.67;66.84;101831.72;4991926;28;20008;-76
2022/10/04 03:32:49;;;;;;;;;;;;;;;11.72;67.08;101830.81;5005446;28;20008;-77
2022/10/04 03:35:29;;;;;;;;;;;;;;;11.72;66.91;101829.94;5015516;28;20063;-76
2022/10/04 03:37:56;;;;;;;;;;;;;;;11.71;67.65;101829.06;5008871;28;20414;-77
2022/10/04 03:40:26;;;;;;;;;;;;;;;11.72;67.21;101815.19;5013938;28;19929;-75
2022/10/04 03:42:51;;;;;;;;;;;;;;;11.81;67.08;101817.72;5018640;28;19929;-76
2022/10/04 03:45:18;;;;;;;;;;;;;;;11.79;66.51;101801.25;4996026;28;19929;-76
2022/10/04 03:47:47;;;;;;;;;;;;;;;11.70;66.91;101811.75;5012530;28;19959;-77
2022/10/04 03:50:22;;;;;;;;;;;;;;;11.78;66.69;101801.25;5014309;28;20413;-76
2022/10/04 03:52:51;;;;;;;;;;;;;;;11.79;67.41;101796.06;5006150;28;20302;-75
2022/10/04 03:55:17;;;;;;;;;;;;;;;11.76;66.90;101803.03;5010366;28;20001;-77
2022/10/04 03:57:42;;;;;;;;;;;;;;;11.75;67.19;101798.69;5011233;28;20087;-76
2022/10/04 04:00:08;;;;;;;;;;;;;;;11.76;67.29;101797.81;5007762;28;20027;-76
2022/10/04 04:02:33;;;;;;;;;;;;;;;11.72;67.03;101794.38;5009778;28;19925;-76
2022/10/04 04:04:58;;;;;;;;;;;;;;;11.62;67.68;101807.50;5009589;28;20493;-76
2022/10/04 04:07:26;;;;;;;;;;;;;;;11.71;67.77;101813.47;5007789;28;19921;-76
2022/10/04 04:09:58;;;;;;;;;;;;;;;11.66;67.72;101814.38;5009601;28;19925;-76
2022/10/04 04:12:25;;;;;;;;;;;;;;;11.64;67.60;101810.94;5013647;28;20317;-76
2022/10/04 04:14:52;;;;;;;;;;;;;;;11.50;67.69;101800.66;5016761;28;20026;-77
2022/10/04 04:17:26;;;;;;;;;;;;;;;11.54;67.82;101803.22;4994577;28;19922;-76
2022/10/04 04:19:53;;;;;;;;;;;;;;;11.58;67.48;101814.47;5013010;28;19961;-77
2022/10/04 04:22:18;;;;;;;;;;;;;;;11.58;67.85;101819.66;5009415;28;19925;-77
2022/10/04 04:24:44;;;;;;;;;;;;;;;11.69;67.50;101810.00;5010336;28;19922;-77
2022/10/04 04:27:12;;;;;;;;;;;;;;;11.69;67.42;101809.16;5003305;28;19940;-76
2022/10/04 04:29:47;;;;;;;;;;;;;;;11.69;67.15;101802.22;5009457;28;19922;-76
2022/10/04 04:32:18;;;;;;;;;;;;;;;11.61;67.77;101792.75;5008638;28;19922;-76
2022/10/04 04:34:49;;;;;;;;;;;;;;;11.62;67.68;101792.75;5012426;28;19944;-77
2022/10/04 04:37:14;;;;;;;;;;;;;;;11.63;67.48;101790.97;5009341;28;19929;-77
2022/10/04 04:39:40;;;;;;;;;;;;;;;11.74;67.43;101783.97;5016497;28;19921;-77
2022/10/04 04:42:05;;;;;;;;;;;;;;;11.76;67.41;101785.66;5017058;28;20662;-77
2022/10/04 04:44:31;;;;;;;;;;;;;;;11.76;67.56;101790.88;5009873;28;20191;-77
2022/10/04 04:46:59;;;;;;;;;;;;;;;11.71;67.18;101803.03;5014632;28;19917;-76
2022/10/04 04:49:26;;;;;;;;;;;;;;;11.72;67.10;101798.72;5014378;28;20008;-76
2022/10/04 04:51:51;;;;;;;;;;;;;;;11.70;67.50;101795.28;5018702;28;19929;-76
2022/10/04 04:54:20;;;;;;;;;;;;;;;11.58;67.16;101801.44;5010255;28;19933;-76
2022/10/04 04:56:47;;;;;;;;;;;;;;;11.67;67.05;101806.56;5006056;28;20408;-76
2022/10/04 04:59:14;;;;;;;;;;;;;;;11.65;67.64;101797.06;5009861;28;19921;-77
2022/10/04 05:01:43;;;;;;;;;;;;;;;11.60;67.75;101797.09;5009377;28;19917;-77
2022/10/04 05:04:08;;;;;;;;;;;;;;;11.54;67.97;101799.75;5011524;28;19960;-77
2022/10/04 05:06:34;;;;;;;;;;;;;;;11.48;67.45;101805.00;5004679;28;19968;-76
2022/10/04 05:08:59;;;;;;;;;;;;;;;11.50;67.96;101792.84;5010337;28;19922;-77
2022/10/04 05:11:33;;;;;;;;;;;;;;;11.50;68.08;101795.47;5009268;28;19928;-76
2022/10/04 05:14:09;;;;;;;;;;;;;;;11.44;68.11;101801.53;5007559;28;19925;-77
2022/10/04 05:16:51;;;;;;;;;;;;;;;11.44;68.37;101798.94;5015012;28;19925;-76
2022/10/04 05:19:34;;;;;;;;;;;;;;;11.29;68.57;101806.91;5011635;28;20016;-77
2022/10/04 05:22:08;;;;;;;;;;;;;;;11.36;68.25;101792.94;5011221;28;19933;-76
2022/10/04 05:24:37;;;;;;;;;;;;;;;11.41;67.74;101795.53;5004665;28;20040;-77
2022/10/04 05:27:13;;;;;;;;;;;;;;;11.47;66.81;101782.47;5007774;28;19921;-76
2022/10/04 05:29:40;;;;;;;;;;;;;;;11.40;66.95;101781.66;5006323;28;19996;-76
2022/10/04 05:32:14;;;;;;;;;;;;;;;11.44;67.07;101782.50;5006458;28;19917;-76
2022/10/04 05:34:40;;;;;;;;;;;;;;;11.34;66.76;101784.31;5015324;28;19921;-76
2022/10/04 05:37:19;;;;;;;;;;;;;;;11.39;66.46;101779.03;5014558;28;19942;-76
2022/10/04 05:40:17;;;;;;;;;;;;;;;11.47;66.68;101770.28;5020376;28;19925;-76
2022/10/04 05:42:44;;;;;;;;;;;;;;;11.48;66.82;101765.97;4985897;28;19925;-76
2022/10/04 05:45:29;;;;;;;;;;;;;;;11.45;66.84;101761.66;5015190;28;19925;-77
2022/10/04 05:47:56;;;;;;;;;;;;;;;11.43;67.29;101776.44;5012592;28;19922;-77
2022/10/04 05:50:39;;;;;;;;;;;;;;;11.52;67.40;101775.47;5012609;28;20305;-77
2022/10/04 05:53:07;;;;;;;;;;;;;;;11.45;67.83;101771.19;5006569;28;19917;-77
2022/10/04 05:55:57;;;;;;;;;;;;;;;11.47;68.52;101767.69;5009532;28;19921;-77
2022/10/04 05:58:22;;;;;;;;;;;;;;;11.53;68.04;101774.63;4999643;28;19989;-77
2022/10/04 06:01:05;;;;;;;;;;;;;;;11.42;68.19;101763.41;5008034;28;19969;-77
2022/10/04 06:03:37;;;;;;;;;;;;;;;11.55;67.89;101758.09;5008702;28;19964;-77
2022/10/04 06:06:15;;;;;;;;;;;;;;;11.49;67.79;101767.69;5010068;28;19917;-76
2022/10/04 06:08:43;;;;;;;;;;;;;;;11.50;67.77;101764.22;5007811;28;19979;-77
2022/10/04 06:11:14;;;;;;;;;;;;;;;11.59;67.71;101766.75;5007576;28;20290;-77
2022/10/04 06:13:51;;;;;;;;;;;;;;;11.54;67.37;101761.56;5015578;28;20286;-77
2022/10/04 06:16:43;;;;;;;;;;;;;;;11.61;67.82;101757.19;5021351;28;19971;-77
2022/10/04 06:19:27;;;;;;;;;;;;;;;11.74;66.82;101755.31;4975697;28;19929;-77
2022/10/04 06:22:01;;;;;;;;;;;;;;;11.73;67.11;101748.38;5012019;28;19930;-76
2022/10/04 06:24:28;;;;;;;;;;;;;;;11.72;67.77;101757.06;5009811;28;20032;-76
2022/10/04 06:27:01;;;;;;;;;;;;;;;11.59;68.07;101758.06;5022432;28;20413;-77
2022/10/04 06:29:30;;;;;;;;;;;;;;;11.75;67.91;101768.31;5014001;28;19925;-76
2022/10/04 06:32:07;;;;;;;;;;;;;;;11.79;67.25;101758.75;5013951;28;20012;-77
2022/10/04 06:34:40;;;;;;;;;;;;;;;11.75;67.57;101764.84;5017660;28;20305;-76
2022/10/04 06:37:23;;;;;;;;;;;;;;;11.71;67.13;101764.00;5018409;28;19957;-77
2022/10/04 06:40:08;;;;;;;;;;;;;;;11.80;67.14;101755.28;5014755;28;20115;-77
2022/10/04 06:42:38;;;;;;;;;;;;;;;11.82;67.02;101756.09;5016964;28;19929;-77
2022/10/04 06:45:04;;;;;;;;;;;;;;;11.82;67.02;101756.97;5019467;28;19922;-77
2022/10/04 06:47:36;;;;;;;;;;;;;;;11.77;67.27;101761.34;5014485;28;19922;-77
2022/10/04 06:50:20;;;;;;;;;;;;;;;11.87;66.66;101749.97;5014631;28;20052;-76
2022/10/04 06:53:07;;;;;;;;;;;;;;;11.86;67.08;101748.22;5008822;28;20467;-77
2022/10/04 06:55:36;;;;;;;;;;;;;;;11.84;67.19;101751.72;5009981;28;20008;-77
2022/10/04 06:58:08;;;;;;;;;;;;;;;11.90;66.67;101747.34;5009371;28;19931;-77
2022/10/04 07:00:53;;;;;;;;;;;;;;;11.90;66.48;101754.28;5008105;28;19933;-77
2022/10/04 07:03:25;;;;;;;;;;;;;;;11.68;66.04;101763.19;5011423;28;19968;-77
2022/10/04 07:05:53;;;;;;;;;;;;;;;11.76;66.93;101772.66;5018785;28;19927;-73
2022/10/04 07:08:37;;;;;;;;;;;;;;;11.78;66.79;101768.28;5014448;28;19952;-74
2022/10/04 07:11:17;;;;;;;;;;;;;;;11.75;67.10;101764.84;4993733;28;20326;-73
2022/10/04 07:13:47;;;;;;;;;;;;;;;11.76;67.27;101761.38;5012801;28;19913;-74
2022/10/04 07:16:16;;;;;;;;;;;;;;;11.80;67.68;101756.09;5013919;28;20352;-74
2022/10/04 07:19:02;;;;;;;;;;;;;;;11.75;67.28;101755.28;5014345;28;19999;-74
2022/10/04 07:21:35;;;;;;;;;;;;;;;11.85;67.95;101763.88;5017931;28;19925;-73
2022/10/04 07:24:02;;;;;;;;;;;;;;;11.88;68.49;101764.72;5009128;28;19921;-74
2022/10/04 07:26:31;;;;;;;;;;;;;;;11.92;68.26;101770.72;5009342;28;20513;-73
2022/10/04 07:31:45;;;;;;;;;;;;;;;12.07;67.93;101766.22;5009724;28;19956;-73
2022/10/04 07:34:14;;;;;;;;;;;;;;;11.93;68.28;101762.06;5011010;28;20286;-73
2022/10/04 07:36:43;;;;;;;;;;;;;;;12.05;67.53;101761.91;5007006;28;19925;-72
2022/10/04 07:39:15;;;;;;;;;;;;;;;12.13;67.25;101756.66;5008112;28;19973;-73
2022/10/04 07:41:51;;;;;;;;;;;;;;;12.11;67.58;101764.47;5012339;28;19956;-73
2022/10/04 07:44:16;;;;;;;;;;;;;;;12.26;67.06;101763.41;5016528;28;19925;-72
2022/10/04 07:46:42;;;;;;;;;;;;;;;12.30;66.23;101759.91;5012596;28;20432;-72
2022/10/04 07:49:14;;;;;;;;;;;;;;;12.24;66.07;101759.97;5016203;28;20271;-73
2022/10/04 07:52:03;;;;;;;;;;;;;;;12.26;66.83;101766.88;5012653;28;19925;-73
2022/10/04 07:54:36;;;;;;;;;;;;;;;12.29;66.79;101772.06;4994832;28;20016;-72
2022/10/04 07:57:13;;;;;;;;;;;;;;;12.37;66.46;101775.41;5004882;28;20025;-73
2022/10/04 07:59:57;;;;;;;;;;;;;;;12.31;66.41;101779.84;5011773;28;20298;-73
2022/10/04 08:02:41;;;;;;;;;;;;;;;12.34;66.48;101782.41;5010275;28;20382;-72
2022/10/04 08:05:21;;;;;;;;;;;;;;;12.37;66.99;101775.41;5010396;28;19996;-71
2022/10/04 08:07:55;;;;;;;;;;;;;;;12.40;67.07;101778.00;5013513;28;19921;-73
2022/10/04 08:10:24;;;;;;;;;;;;;;;12.42;66.78;101776.22;5016108;28;19922;-73
2022/10/04 08:13:15;;;;;;;;;;;;;;;12.37;66.87;101774.56;5000872;28;20024;-73
2022/10/04 08:15:41;;;;;;;;;;;;;;;12.41;66.10;101777.13;5015720;28;19982;-73
2022/10/04 08:18:28;;;;;;;;;;;;;;;12.38;66.15;101776.28;5014282;28;19925;-73
2022/10/04 08:20:56;;;;;;;;;;;;;;;12.38;66.38;101774.56;5008957;28;19956;-73
2022/10/04 08:23:32;;;;;;;;;;;;;;;12.41;67.05;101782.34;5008642;28;19929;-73
2022/10/04 08:25:57;;;;;;;;;;;;;;;12.36;67.13;101773.72;5019115;28;19921;-73
2022/10/04 08:31:25;;;;;;;;;;;;;;;12.42;65.81;101772.78;5009665;28;19976;-72
2022/10/04 08:33:53;;;;;;;;;;;;;;;12.40;66.44;101774.53;5020816;28;20027;-72
2022/10/04 08:36:25;;;;;;;;;;;;;;;12.35;65.70;101774.59;5008865;28;19917;-72
2022/10/04 08:38:56;;;;;;;;;;;;;;;12.42;66.68;101781.44;5008516;28;19921;-73
2022/10/04 08:41:39;;;;;;;;;;;;;;;12.50;66.37;101779.63;5009785;28;19971;-73
2022/10/04 08:44:24;;;;;;;;;;;;;;;12.54;65.96;101772.66;5011930;28;19921;-73
2022/10/04 08:46:58;;;;;;;;;;;;;;;12.51;65.72;101772.66;5013301;28;19924;-73
2022/10/04 08:49:23;;;;;;;;;;;;;;;12.46;66.36;101775.31;5012068;28;19922;-73
2022/10/04 08:52:04;;;;;;;;;;;;;;;12.57;66.10;101772.63;5017083;28;19983;-72
2022/10/04 08:54:47;;;;;;;;;;;;;;;12.50;65.75;101761.38;5012599;28;20409;-73
2022/10/04 08:57:19;;;;;;;;;;;;;;;12.59;64.91;101761.28;5009560;28;20394;-73
2022/10/04 09:00:04;;;;;;;;;;;;;;;12.60;66.17;101767.38;5004245;28;20000;-73
2022/10/04 09:02:45;;;;;;;;;;;;;;;12.53;66.19;101757.88;5007122;28;19953;-73
2022/10/04 09:05:29;;;;;;;;;;;;;;;12.51;67.28;101759.63;5009089;28;19929;-73
2022/10/04 09:07:57;;;;;;;;;;;;;;;12.71;65.84;101756.78;4998533;28;19917;-73
2022/10/04 09:11:00;;;;;;;;;;;;;;;12.74;64.89;101754.13;5005883;28;19917;-73
2022/10/04 09:13:37;;;;;;;;;;;;;;;12.71;65.54;101751.56;4943279;28;19934;-73
2022/10/04 09:16:21;;;;;;;;;;;;;;;12.71;65.38;101751.56;4946654;28;19967;-73
2022/10/04 09:18:46;;;;;;;;;;;;;;;12.72;65.73;101748.91;4990864;28;19922;-72
2022/10/04 09:21:20;;;;;;;;;;;;;;;12.72;65.81;101745.47;4993263;28;20027;-72
2022/10/04 09:24:04;;;;;;;;;;;;;;;12.79;66.21;101749.69;5003010;28;19980;-73
2022/10/04 09:26:31;;;;;;;;;;;;;;;12.90;65.49;101746.03;5007728;28;19925;-73
2022/10/04 09:29:16;;;;;;;;;;;;;;;12.85;65.50;101760.91;5012267;28;19921;-73
2022/10/04 09:31:51;;;;;;;;;;;;;;;12.86;65.16;101753.94;4992164;28;19918;-73
2022/10/04 09:34:25;;;;;;;;;;;;;;;12.89;65.35;101753.91;4999288;28;19936;-73
2022/10/04 09:37:03;;;;;;;;;;;;;;;12.87;65.38;101753.06;5008439;28;19929;-73
2022/10/04 09:39:31;;;;;;;;;;;;;;;12.97;64.93;101739.88;5005208;28;19921;-73
2022/10/04 09:41:59;;;;;;;;;;;;;;;12.93;64.24;101740.78;5010489;28;19952;-73
2022/10/04 09:44:45;;;;;;;;;;;;;;;12.95;65.10;101741.66;5015930;28;19995;-73
2022/10/04 09:47:16;;;;;;;;;;;;;;;13.05;63.62;101722.34;5015025;28;19921;-73
2022/10/04 09:50:16;;;;;;;;;;;;;;;13.11;64.42;101727.47;5014357;28;20334;-72
2022/10/04 09:52:47;;;;;;;;;;;;;;;13.10;64.61;101732.72;4969891;28;19925;-73
2022/10/04 09:55:22;;;;;;;;;;;;;;;13.13;64.34;101730.06;5009118;28;19917;-72
2022/10/04 09:57:47;;;;;;;;;;;;;;;13.19;64.71;101732.56;5008705;28;19932;-73
2022/10/04 10:00:13;;;;;;;;;;;;;;;13.22;63.41;101732.53;5010175;28;19917;-73
2022/10/04 10:02:41;;;;;;;;;;;;;;;13.29;63.90;101720.19;5016964;28;19926;-73
2022/10/04 10:05:22;;;;;;;;;;;;;;;13.35;64.54;101720.09;5010138;28;19961;-73
2022/10/04 10:07:53;;;;;;;;;;;;;;;13.22;65.33;101716.88;5012389;28;19913;-73
2022/10/04 10:16:11;;;;;;;;;;;;;;;13.52;63.29;101711.09;5012767;28;19928;-73
2022/10/04 10:19:05;;;;;;;;;;;;;;;13.53;62.61;101707.59;5014991;28;20342;-73
2022/10/04 10:21:31;;;;;;;;;;;;;;;13.59;64.91;101717.06;4999973;28;20378;-72
2022/10/04 10:24:02;;;;;;;;;;;;;;;13.58;63.22;101710.13;5013332;28;19967;-73
2022/10/04 10:26:42;;;;;;;;;;;;;;;13.56;63.60;101715.38;5012394;28;20132;-73
2022/10/04 10:29:14;;;;;;;;;;;;;;;13.61;65.36;101716.13;5014086;28;20079;-73
2022/10/04 10:31:42;;;;;;;;;;;;;;;13.70;64.36;101700.34;5010829;28;19959;-72
2022/10/04 10:34:28;;;;;;;;;;;;;;;13.64;64.23;101702.19;5013544;28;19928;-73
2022/10/04 10:36:59;;;;;;;;;;;;;;;13.61;63.89;101702.25;5011831;28;20075;-73
2022/10/04 10:39:37;;;;;;;;;;;;;;;13.59;64.87;101702.25;5006748;28;19961;-73
2022/10/04 10:42:15;;;;;;;;;;;;;;;13.71;64.76;101699.47;5009199;28;19933;-74
2022/10/04 10:45:09;;;;;;;;;;;;;;;13.73;64.31;101696.81;5014611;28;19928;-73
2022/10/04 10:47:42;;;;;;;;;;;;;;;13.70;63.84;101697.72;5019831;28;19921;-74
2022/10/04 10:50:13;;;;;;;;;;;;;;;13.72;63.92;101703.81;5016543;28;20361;-73
2022/10/04 10:52:58;;;;;;;;;;;;;;;13.86;65.17;101707.88;5017576;28;19917;-73
2022/10/04 10:55:27;;;;;;;;;;;;;;;13.75;63.80;101703.75;5005237;28;20497;-73
2022/10/04 10:57:58;;;;;;;;;;;;;;;13.80;64.30;101702.78;5013356;28;19928;-73
2022/10/04 11:00:33;;;;;;;;;;;;;;;13.80;63.15;101694.94;5013462;28;19928;-73
2022/10/04 11:03:11;;;;;;;;;;;;;;;13.82;63.79;101694.00;5017549;28;20956;-73
2022/10/04 11:05:46;;;;;;;;;;;;;;;13.83;64.13;101684.44;5010304;28;19927;-74
2022/10/04 11:08:28;;;;;;;;;;;;;;;13.93;65.45;101688.59;5015031;28;20011;-74
2022/10/04 11:11:03;;;;;;;;;;;;;;;13.88;64.28;101680.84;5012313;28;19918;-74
2022/10/04 11:13:48;;;;;;;;;;;;;;;13.90;62.83;101686.03;5014730;28;19932;-73
2022/10/04 11:16:27;;;;;;;;;;;;;;;13.99;66.09;101686.72;4997877;28;19922;-73
2022/10/04 11:19:05;;;;;;;;;;;;;;;13.88;64.49;101677.38;5016638;28;19964;-73
2022/10/04 11:21:49;;;;;;;;;;;;;;;13.90;64.59;101673.84;5012461;28;19917;-73
2022/10/04 11:24:33;;;;;;;;;;;;;;;14.01;65.19;101665.78;5009525;28;19932;-73
2022/10/04 11:26:59;;;;;;;;;;;;;;;13.98;64.46;101658.88;5006244;28;19977;-73
2022/10/04 11:29:30;;;;;;;;;;;;;;;14.06;64.12;101651.72;5008767;28;20071;-74
2022/10/04 11:32:19;;;;;;;;;;;;;;;14.19;67.04;101657.56;5005633;28;19918;-74
2022/10/04 11:34:58;;;;;;;;;;;;;;;14.13;64.06;101647.22;5011554;28;19913;-74
2022/10/04 11:37:27;;;;;;;;;;;;;;;14.18;65.90;101651.47;5012465;28;19928;-74
2022/10/04 11:39:58;;;;;;;;;;;;;;;14.21;64.07;101645.31;5011406;28;20374;-73
2022/10/04 11:42:51;;;;;;;;;;;;;;;14.21;64.27;101640.06;5013794;28;20353;-74
2022/10/04 11:45:18;;;;;;;;;;;;;;;14.23;64.24;101640.91;5013386;28;20303;-73
2022/10/04 11:47:49;;;;;;;;;;;;;;;14.28;63.90;101633.81;5012037;28;19921;-73
2022/10/04 11:50:21;;;;;;;;;;;;;;;14.28;63.50;101628.59;5010890;28;20405;-73
2022/10/04 11:52:53;;;;;;;;;;;;;;;14.32;64.04;101618.03;5007291;28;19917;-74
2022/10/04 11:55:30;;;;;;;;;;;;;;;14.30;62.48;101616.34;5008405;28;19921;-73
2022/10/04 11:58:13;;;;;;;;;;;;;;;14.31;64.65;101626.78;5009261;28;20442;-73
2022/10/04 12:00:53;;;;;;;;;;;;;;;14.29;63.30;101625.09;5008236;28;19925;-73
2022/10/04 12:03:34;;;;;;;;;;;;;;;14.42;66.95;101631.75;5011742;28;20035;-72
2022/10/04 12:06:13;;;;;;;;;;;;;;;14.36;64.80;101626.66;5009326;28;20008;-74
2022/10/04 12:08:47;;;;;;;;;;;;;;;14.47;66.90;101619.47;5011783;28;20301;-73
2022/10/04 12:11:16;;;;;;;;;;;;;;;14.36;64.51;101610.13;5011885;28;19921;-73
2022/10/04 12:13:41;;;;;;;;;;;;;;;14.38;64.18;101608.34;5012269;28;20367;-73
2022/10/04 12:16:10;;;;;;;;;;;;;;;14.43;65.15;101609.97;5009047;28;19932;-73
2022/10/04 12:18:35;;;;;;;;;;;;;;;14.47;66.00;101600.28;5009424;28;19961;-74
2022/10/04 12:21:19;;;;;;;;;;;;;;;14.46;66.46;101595.94;5015723;28;20343;-73
2022/10/04 12:24:03;;;;;;;;;;;;;;;14.53;66.45;101602.75;5025976;28;19932;-73
2022/10/04 12:26:31;;;;;;;;;;;;;;;14.60;66.97;101588.63;5002670;28;19925;-73
2022/10/04 12:28:56;;;;;;;;;;;;;;;14.56;67.01;101593.06;5014292;28;19921;-74
2022/10/04 12:31:44;;;;;;;;;;;;;;;14.55;66.11;101593.13;5015312;28;19917;-73
2022/10/04 12:34:13;;;;;;;;;;;;;;;14.48;65.37;101588.91;5001130;28;19921;-73
2022/10/04 12:36:57;;;;;;;;;;;;;;;14.52;65.13;101596.66;5018730;28;20466;-73
2022/10/04 12:39:35;;;;;;;;;;;;;;;14.49;64.54;101609.81;5017979;28;19917;-74
2022/10/04 12:42:19;;;;;;;;;;;;;;;14.51;64.58;101600.16;5012563;28;19969;-74
2022/10/04 12:44:53;;;;;;;;;;;;;;;14.56;66.50;101593.06;5017536;28;20267;-74
2022/10/04 12:47:40;;;;;;;;;;;;;;;14.65;67.11;101578.94;5015463;28;19922;-74
2022/10/04 12:50:16;;;;;;;;;;;;;;;14.61;66.24;101566.81;5015631;28;20012;-74
2022/10/04 12:52:52;;;;;;;;;;;;;;;14.64;67.32;101572.84;5013259;28;19936;-73
2022/10/04 12:55:36;;;;;;;;;;;;;;;14.59;67.21;101568.63;5009808;28;19922;-73
2022/10/04 12:58:09;;;;;;;;;;;;;;;14.64;66.64;101565.00;5009365;28;19926;-74
2022/10/04 13:00:39;;;;;;;;;;;;;;;14.69;66.73;101557.88;5016339;28;20019;-74
2022/10/04 13:03:20;;;;;;;;;;;;;;;14.65;66.62;101547.56;5013507;28;19972;-74
2022/10/04 13:05:45;;;;;;;;;;;;;;;14.70;66.86;101557.00;5005302;28;19990;-74
2022/10/04 13:08:29;;;;;;;;;;;;;;;14.66;66.15;101551.88;5016849;28;20374;-74
2022/10/04 13:11:07;;;;;;;;;;;;;;;14.68;66.77;101553.53;5011518;28;20454;-74
2022/10/04 13:13:58;;;;;;;;;;;;;;;14.74;67.37;101547.31;5016092;28;19920;-73
2022/10/04 13:16:35;;;;;;;;;;;;;;;14.73;67.61;101542.97;5018290;28;19922;-73
2022/10/04 13:19:10;;;;;;;;;;;;;;;14.80;65.31;101532.34;5017124;28;19918;-73
2022/10/04 13:21:35;;;;;;;;;;;;;;;14.79;65.33;101522.78;5013642;28;19921;-74